LIML METAR and TAF | Updated Today

LIML METAR

Milano Linate Airport

Observation time: 14 min. ago

LIML 291050Z VRB05KT 9999 FEW030 BKN060 18/10 Q1007 NOSIG

Need help? Read our tutorial on how to read METARs or read the parsed version below.

Milano Linate Airport (LIML) METAR

  • Weather conditions on Sun, 29 May 2022 10:50:00 +0000 (14 min. ago):
  • Present conditions: Dry
  • Clouds: A few at 914 meters; broken sky at 1829 meters
  • Visibility: Greater than 10 km
  • Wind: Variable at 5 knots
  • Temperature: 18 celsius
  • Dew point: 10 celsius
  • Pressure: 1007 millibars
  • Remarks: None


Useful to know...

LIML TAF

Milano Linate Airport

TAF LIML 290500Z 2906/3006 11010KT 9999 SCT040
Observation time: 6:04 hr. ago
Need help? Read our tutorial on how to read TAFs or read the parsed version below.

Parsed version of TAF for Milano Linate Airport (LIML)

  • From 29 May at 06:00 UTC, to day 30 of the month at 06:00 UTC
  • Clouds: Scattered at 1219 meters
  • Visibility: Greater than 10 km
  • Wind: 110 degrees at 10